createdAt,value
2024-05-09T00:00:46.502Z,15.65
2024-05-09T00:03:14.208Z,17.30
2024-05-09T00:05:42.725Z,16.50
2024-05-09T00:08:11.390Z,16.50
2024-05-09T00:10:40.523Z,16.40
2024-05-09T00:13:10.189Z,16.45
2024-05-09T00:15:38.444Z,18.08
2024-05-09T00:18:07.663Z,16.67
2024-05-09T00:20:39.738Z,17.15
2024-05-09T00:23:11.641Z,19.75
2024-05-09T00:25:40.735Z,17.33
2024-05-09T00:28:07.962Z,17.60
2024-05-09T00:30:36.939Z,17.45
2024-05-09T00:33:07.484Z,17.35
2024-05-09T00:35:36.351Z,17.02
2024-05-09T00:38:04.216Z,18.55
2024-05-09T00:40:40.137Z,17.02
2024-05-09T00:43:10.702Z,18.50
2024-05-09T00:45:38.275Z,15.93
2024-05-09T00:48:08.931Z,16.75
2024-05-09T00:50:41.026Z,17.45
2024-05-09T00:53:11.865Z,17.40
2024-05-09T00:55:40.298Z,17.75
2024-05-09T00:58:09.979Z,17.98
2024-05-09T01:00:40.064Z,19.45
2024-05-09T01:03:11.987Z,18.55
2024-05-09T01:05:41.474Z,18.20
2024-05-09T01:08:10.804Z,17.42
2024-05-09T01:10:39.495Z,21.50
2024-05-09T01:13:07.887Z,18.83
2024-05-09T01:15:35.816Z,18.13
2024-05-09T01:18:09.996Z,17.45
2024-05-09T01:23:14.408Z,18.08
2024-05-09T01:25:44.354Z,19.20
2024-05-09T01:28:12.150Z,19.67
2024-05-09T01:30:39.483Z,15.50
2024-05-09T01:33:09.205Z,18.38
2024-05-09T01:35:39.255Z,17.35
2024-05-09T01:38:07.991Z,15.18
2024-05-09T01:40:38.838Z,19.02
2024-05-09T01:43:09.236Z,17.40
2024-05-09T01:45:38.010Z,17.33
2024-05-09T01:48:06.115Z,16.92
2024-05-09T01:50:38.979Z,18.73
2024-05-09T01:53:10.355Z,25.83
2024-05-09T01:55:38.335Z,21.60
2024-05-09T01:58:06.174Z,31.17
2024-05-09T02:00:39.359Z,29.55
2024-05-09T02:03:13.488Z,24.52
2024-05-09T02:05:44.490Z,24.38
2024-05-09T02:08:17.476Z,40.85
2024-05-09T02:10:45.963Z,28.25
2024-05-09T02:13:14.145Z,24.48
2024-05-09T02:15:42.318Z,25.35
2024-05-09T02:18:10.586Z,19.13
2024-05-09T02:20:40.885Z,58.35
2024-05-09T02:23:09.562Z,17.48
2024-05-09T02:25:37.112Z,30.98
2024-05-09T02:28:04.558Z,28.95
2024-05-09T02:30:39.415Z,23.50
2024-05-09T02:33:12.096Z,59.10
2024-05-09T02:35:41.878Z,20.35
2024-05-09T02:38:10.131Z,23.35
2024-05-09T02:40:39.435Z,22.23
2024-05-09T02:43:10.049Z,21.13
2024-05-09T02:45:39.340Z,33.13
2024-05-09T02:48:07.484Z,19.95
2024-05-09T02:50:39.114Z,20.77
2024-05-09T02:53:09.315Z,17.27
2024-05-09T02:55:38.925Z,16.52
2024-05-09T02:58:07.678Z,19.25
2024-05-09T03:00:39.423Z,18.50
2024-05-09T03:03:11.134Z,19.10
2024-05-09T03:05:40.987Z,24.63
2024-05-09T03:08:08.716Z,16.02
2024-05-09T03:10:38.520Z,17.83
2024-05-09T03:13:07.903Z,15.15
2024-05-09T03:15:35.465Z,25.80
2024-05-09T03:18:03.693Z,16.77
2024-05-09T03:20:34.826Z,17.70
2024-05-09T03:23:05.000Z,17.52
2024-05-09T03:25:32.801Z,16.67
2024-05-09T03:28:00.173Z,15.73
2024-05-09T03:30:38.976Z,27.38
2024-05-09T03:33:13.172Z,18.23
2024-05-09T03:35:42.062Z,20.77
2024-05-09T03:38:09.774Z,14.38
2024-05-09T03:40:44.011Z,15.10
2024-05-09T03:43:11.453Z,18.48
2024-05-09T03:45:38.674Z,13.20
2024-05-09T03:48:06.778Z,17.92
2024-05-09T03:50:35.999Z,14.77
2024-05-09T03:53:04.689Z,15.10
2024-05-09T03:55:32.350Z,15.32
2024-05-09T03:57:59.960Z,13.95
2024-05-09T04:00:35.432Z,16.05
2024-05-09T04:03:09.051Z,22.13
2024-05-09T04:05:41.306Z,14.63
2024-05-09T04:08:10.706Z,13.73
2024-05-09T04:10:38.493Z,14.52
2024-05-09T04:13:05.900Z,13.77
2024-05-09T04:15:33.239Z,13.57
2024-05-09T04:18:01.827Z,16.00
2024-05-09T04:20:37.560Z,13.18
2024-05-09T04:23:08.898Z,15.43
2024-05-09T04:25:37.248Z,56.88
2024-05-09T04:28:05.448Z,16.70
2024-05-09T04:30:38.336Z,12.25
2024-05-09T04:33:11.314Z,13.05
2024-05-09T04:35:42.691Z,12.13
2024-05-09T04:38:10.581Z,19.88
2024-05-09T04:40:38.351Z,15.25
2024-05-09T04:43:06.875Z,13.52
2024-05-09T04:45:34.950Z,12.52
2024-05-09T04:48:03.036Z,14.00
2024-05-09T04:50:36.763Z,33.40
2024-05-09T04:53:10.062Z,13.23
2024-05-09T04:55:39.893Z,10.50
2024-05-09T04:58:09.478Z,12.05
2024-05-09T05:00:39.026Z,13.10
2024-05-09T05:03:12.951Z,12.77
2024-05-09T05:05:44.104Z,15.93
2024-05-09T05:08:14.096Z,13.15
2024-05-09T05:10:42.775Z,12.65
2024-05-09T05:13:21.230Z,12.43
2024-05-09T05:15:50.374Z,12.23
2024-05-09T05:18:18.618Z,12.10
2024-05-09T05:20:46.405Z,11.52
2024-05-09T05:23:15.724Z,10.88
2024-05-09T05:25:43.911Z,11.07
2024-05-09T05:28:11.475Z,10.73
2024-05-09T05:30:41.433Z,10.40
2024-05-09T05:33:11.912Z,10.50
2024-05-09T05:35:40.549Z,11.98
2024-05-09T05:38:09.012Z,9.40
2024-05-09T05:40:38.455Z,9.90
2024-05-09T05:43:09.310Z,9.65
2024-05-09T05:45:37.423Z,9.57
2024-05-09T05:48:06.326Z,8.52
2024-05-09T05:50:37.238Z,8.60
2024-05-09T05:53:07.745Z,8.75
2024-05-09T05:55:36.959Z,8.10
2024-05-09T05:58:04.584Z,8.95
2024-05-09T06:03:02.543Z,6.63
2024-05-09T06:05:30.111Z,6.60
2024-05-09T06:07:57.497Z,6.65
2024-05-09T06:10:30.097Z,8.57
2024-05-09T06:13:05.658Z,7.60
2024-05-09T06:15:32.974Z,7.35
2024-05-09T06:18:00.676Z,7.85
2024-05-09T06:20:35.469Z,7.93
2024-05-09T06:23:06.751Z,7.00
2024-05-09T06:25:35.424Z,7.38
2024-05-09T06:28:03.547Z,7.28
2024-05-09T06:33:04.816Z,6.90
2024-05-09T06:35:32.694Z,7.55
2024-05-09T06:38:00.290Z,6.97
2024-05-09T06:40:36.224Z,7.90
2024-05-09T06:43:22.039Z,8.10
2024-05-09T06:45:53.263Z,8.80
2024-05-09T06:48:21.748Z,8.00
2024-05-09T06:50:50.388Z,8.70
2024-05-09T06:53:20.578Z,8.00
2024-05-09T06:55:48.105Z,8.10
2024-05-09T06:58:16.079Z,6.95
2024-05-09T07:00:43.494Z,6.90
2024-05-09T07:03:15.131Z,6.75
2024-05-09T07:05:45.841Z,6.38
2024-05-09T07:08:13.935Z,5.45
2024-05-09T07:10:41.560Z,6.03
2024-05-09T07:13:10.347Z,5.88
2024-05-09T07:15:39.070Z,6.05
2024-05-09T07:18:17.412Z,6.05
2024-05-09T07:20:47.023Z,6.13
2024-05-09T07:23:15.707Z,6.20
2024-05-09T07:25:43.496Z,6.90
2024-05-09T07:28:13.736Z,6.60
2024-05-09T07:30:41.467Z,5.80
2024-05-09T07:33:09.139Z,4.60
2024-05-09T07:35:36.742Z,6.25
2024-05-09T07:38:04.161Z,7.20
2024-05-09T07:40:36.180Z,4.75
2024-05-09T07:43:05.327Z,5.03
2024-05-09T07:52:23.804Z,6.97
2024-05-09T07:53:39.450Z,4.05
2024-05-09T07:56:11.419Z,6.22
2024-05-09T07:58:39.703Z,5.10
2024-05-09T08:01:07.194Z,2.55
2024-05-09T08:03:34.979Z,3.80
2024-05-09T08:06:02.400Z,4.22
2024-05-09T08:08:29.698Z,3.25
2024-05-09T08:10:57.843Z,4.57
2024-05-09T08:13:27.620Z,3.17
2024-05-09T08:15:55.486Z,4.82
2024-05-09T08:18:23.067Z,5.45
2024-05-09T08:20:52.297Z,2.90
2024-05-09T08:23:19.598Z,5.05
2024-05-09T08:25:47.014Z,4.28
2024-05-09T08:28:15.359Z,4.95
2024-05-09T08:30:43.505Z,6.35
2024-05-09T08:33:11.139Z,5.25
2024-05-09T08:35:38.509Z,4.43
2024-05-09T08:38:07.256Z,2.92
2024-05-09T08:40:37.458Z,3.08
2024-05-09T08:43:11.659Z,2.83
2024-05-09T08:45:44.342Z,3.38
2024-05-09T08:48:15.453Z,5.20
2024-05-09T08:50:45.239Z,5.80
2024-05-09T08:53:15.198Z,4.47
2024-05-09T08:55:44.199Z,5.32
2024-05-09T08:58:20.250Z,6.00
2024-05-09T09:00:48.913Z,4.53
2024-05-09T09:03:20.049Z,5.32
2024-05-09T09:05:58.671Z,4.47
2024-05-09T09:08:26.865Z,3.78
2024-05-09T09:10:57.966Z,5.72
2024-05-09T09:13:26.373Z,4.68
2024-05-09T09:15:57.925Z,3.15
2024-05-09T09:18:27.603Z,5.00
2024-05-09T09:20:55.646Z,5.65
2024-05-09T09:23:23.245Z,3.78
2024-05-09T09:25:50.954Z,3.00
2024-05-09T09:28:18.418Z,6.40
2024-05-09T09:30:46.406Z,5.30
2024-05-09T09:33:13.972Z,6.18
2024-05-09T09:35:42.824Z,6.05
2024-05-09T09:38:11.215Z,3.92
2024-05-09T09:40:46.842Z,3.08
2024-05-09T09:43:22.411Z,3.67
2024-05-09T09:45:53.129Z,4.90
2024-05-09T09:48:23.099Z,6.57
2024-05-09T09:50:52.972Z,4.45
2024-05-09T09:53:21.124Z,3.90
2024-05-09T09:55:48.814Z,5.00
2024-05-09T09:58:18.327Z,6.45
2024-05-09T10:00:46.177Z,5.45
2024-05-09T10:03:13.864Z,4.28
2024-05-09T10:05:45.071Z,4.30
2024-05-09T10:08:16.679Z,3.78
2024-05-09T10:10:47.992Z,7.85
2024-05-09T10:13:16.398Z,3.72
2024-05-09T10:15:46.090Z,3.78
2024-05-09T10:18:14.330Z,4.85
2024-05-09T10:20:45.252Z,5.63
2024-05-09T10:23:27.567Z,3.67
2024-05-09T10:25:59.971Z,5.85
2024-05-09T10:28:28.612Z,3.65
2024-05-09T10:31:08.564Z,6.03
2024-05-09T10:33:38.301Z,2.60
2024-05-09T10:36:12.943Z,4.22
2024-05-09T10:38:42.023Z,7.55
2024-05-09T10:41:09.691Z,3.08
2024-05-09T10:43:41.774Z,4.38
2024-05-09T10:46:10.578Z,6.15
2024-05-09T10:48:39.220Z,4.43
2024-05-09T10:51:06.966Z,4.43
2024-05-09T10:53:43.505Z,4.15
2024-05-09T10:56:13.270Z,3.78
2024-05-09T10:58:40.821Z,3.85
2024-05-09T11:01:10.195Z,6.25
2024-05-09T11:03:39.264Z,3.75
2024-05-09T11:06:08.267Z,12.80
2024-05-09T11:08:36.649Z,3.00
2024-05-09T11:11:08.163Z,4.85
2024-05-09T11:13:38.133Z,3.13
2024-05-09T11:16:15.827Z,3.72
2024-05-09T11:18:43.778Z,3.58
2024-05-09T11:21:14.005Z,7.82
2024-05-09T11:23:41.966Z,2.42
2024-05-09T11:26:11.144Z,3.40
2024-05-09T11:28:38.542Z,3.38
2024-05-09T11:31:08.888Z,4.05
2024-05-09T11:33:40.037Z,3.75
2024-05-09T11:36:09.591Z,4.00
2024-05-09T11:38:37.104Z,4.78
2024-05-09T11:41:05.721Z,6.20
2024-05-09T11:43:33.698Z,4.93
2024-05-09T11:46:03.646Z,4.10
2024-05-09T11:48:32.125Z,3.47
2024-05-09T11:50:59.655Z,4.15
2024-05-09T11:53:27.100Z,5.20
2024-05-09T11:55:54.520Z,3.65
2024-05-09T11:58:23.157Z,2.70
2024-05-09T12:00:50.752Z,4.18
2024-05-09T12:03:18.299Z,6.55
2024-05-09T12:05:45.830Z,3.15
2024-05-09T12:08:14.395Z,4.20
2024-05-09T12:10:42.185Z,6.20
2024-05-09T12:13:10.011Z,3.95
2024-05-09T12:15:38.452Z,5.35
2024-05-09T12:18:08.137Z,4.68
2024-05-09T12:20:38.842Z,4.65
2024-05-09T12:23:10.089Z,2.78
2024-05-09T12:25:39.749Z,4.43
2024-05-09T12:28:08.901Z,4.45
2024-05-09T12:30:40.309Z,4.20
2024-05-09T12:33:11.550Z,2.22
2024-05-09T12:35:41.789Z,2.72
2024-05-09T12:38:10.423Z,5.45
2024-05-09T12:40:39.095Z,3.53
2024-05-09T12:43:08.856Z,3.47
2024-05-09T12:45:37.917Z,4.07
2024-05-09T12:48:08.626Z,3.75
2024-05-09T12:50:37.293Z,6.13
2024-05-09T12:53:05.618Z,3.90
2024-05-09T12:55:40.661Z,5.05
2024-05-09T12:58:17.159Z,3.05
2024-05-09T13:00:45.712Z,5.78
2024-05-09T13:03:13.731Z,5.40
2024-05-09T13:05:41.828Z,5.65
2024-05-09T13:08:09.660Z,3.35
2024-05-09T13:10:37.370Z,4.20
2024-05-09T13:13:05.181Z,4.65
2024-05-09T13:15:35.115Z,4.38
2024-05-09T13:18:03.707Z,4.40
2024-05-09T13:20:34.510Z,4.18
2024-05-09T13:23:05.406Z,3.33
2024-05-09T13:25:35.023Z,3.05
2024-05-09T13:28:03.710Z,5.00
2024-05-09T13:30:39.238Z,3.15
2024-05-09T13:33:11.525Z,3.17
2024-05-09T13:35:45.468Z,7.32
2024-05-09T13:38:17.562Z,4.63
2024-05-09T13:40:45.598Z,6.15
2024-05-09T13:43:13.322Z,3.67
2024-05-09T13:45:40.854Z,2.85
2024-05-09T13:48:10.120Z,2.47
2024-05-09T13:50:38.257Z,2.65
2024-05-09T13:53:07.259Z,2.47
2024-05-09T13:55:38.623Z,6.35
2024-05-09T13:58:07.197Z,2.78
2024-05-09T14:00:44.274Z,3.30
2024-05-09T14:03:17.005Z,5.13
2024-05-09T14:05:46.147Z,2.55
2024-05-09T14:08:15.803Z,4.40
2024-05-09T14:10:46.619Z,5.45
2024-05-09T14:13:14.655Z,5.68
2024-05-09T14:15:42.009Z,4.18
2024-05-09T14:18:12.549Z,4.03
2024-05-09T14:20:41.900Z,5.63
2024-05-09T14:23:09.609Z,4.50
2024-05-09T14:25:42.041Z,4.35
2024-05-09T14:28:12.433Z,3.45
2024-05-09T14:30:40.648Z,2.78
2024-05-09T14:33:09.053Z,2.20
2024-05-09T14:35:38.910Z,2.65
2024-05-09T14:38:07.707Z,3.83
2024-05-09T14:40:42.097Z,2.53
2024-05-09T14:43:14.462Z,2.63
2024-05-09T14:45:43.348Z,2.45
2024-05-09T14:48:15.120Z,5.38
2024-05-09T14:50:42.817Z,3.92
2024-05-09T14:53:11.657Z,3.60
2024-05-09T14:55:41.725Z,4.90
2024-05-09T14:58:12.158Z,4.22
2024-05-09T15:00:46.127Z,3.25
2024-05-09T15:03:18.542Z,5.18
2024-05-09T15:05:47.413Z,4.30
2024-05-09T15:08:16.634Z,5.38
2024-05-09T15:10:44.489Z,4.65
2024-05-09T15:13:14.325Z,2.92
2024-05-09T15:15:43.981Z,3.33
2024-05-09T15:18:11.757Z,2.63
2024-05-09T15:20:40.729Z,2.75
2024-05-09T15:23:08.508Z,3.78
2024-05-09T15:25:36.910Z,3.95
2024-05-09T15:28:07.823Z,3.58
2024-05-09T15:30:36.382Z,2.60
2024-05-09T15:33:05.195Z,4.22
2024-05-09T15:35:34.428Z,4.30
2024-05-09T15:38:03.585Z,4.15
2024-05-09T15:40:38.366Z,4.78
2024-05-09T15:43:10.325Z,5.32
2024-05-09T15:45:40.264Z,4.00
2024-05-09T15:48:09.753Z,2.40
2024-05-09T15:50:40.780Z,6.78
2024-05-09T15:53:11.944Z,3.38
2024-05-09T15:55:39.985Z,4.72
2024-05-09T15:58:07.860Z,3.80
2024-05-09T16:00:39.790Z,3.67
2024-05-09T16:03:11.288Z,2.85
2024-05-09T16:05:39.489Z,4.38
2024-05-09T16:08:08.009Z,3.00
2024-05-09T16:10:36.731Z,2.95
2024-05-09T16:13:05.160Z,2.53
2024-05-09T16:15:32.833Z,4.90
2024-05-09T16:18:01.180Z,3.95
2024-05-09T16:20:38.015Z,7.07
2024-05-09T16:23:08.919Z,3.85
2024-05-09T16:25:37.264Z,3.15
2024-05-09T16:28:08.827Z,6.40
2024-05-09T16:30:40.037Z,3.72
2024-05-09T16:33:08.850Z,3.47
2024-05-09T16:35:37.801Z,5.10
2024-05-09T16:38:06.330Z,3.92
2024-05-09T16:40:38.447Z,6.05
2024-05-09T16:43:10.966Z,2.58
2024-05-09T16:45:40.985Z,3.30
2024-05-09T16:48:09.070Z,4.63
2024-05-09T16:50:37.017Z,4.15
2024-05-09T16:53:05.963Z,5.78
2024-05-09T16:55:34.732Z,4.57
2024-05-09T16:58:03.207Z,3.55
2024-05-09T17:00:39.036Z,3.90
2024-05-09T17:03:12.993Z,2.47
2024-05-09T17:05:41.928Z,2.28
2024-05-09T17:08:09.885Z,5.07
2024-05-09T17:10:37.438Z,4.30
2024-05-09T17:13:06.894Z,3.28
2024-05-09T17:15:37.257Z,4.75
2024-05-09T17:18:06.755Z,4.25
2024-05-09T17:20:36.774Z,3.70
2024-05-09T17:23:13.144Z,4.15
2024-05-09T17:25:42.292Z,2.88
2024-05-09T17:28:10.681Z,5.13
2024-05-09T17:30:40.101Z,3.65
2024-05-09T17:33:10.421Z,3.08
2024-05-09T17:35:38.981Z,2.50
2024-05-09T17:38:07.863Z,2.50
2024-05-09T17:40:37.476Z,3.17
2024-05-09T17:43:09.287Z,3.25
2024-05-09T17:45:40.373Z,4.80
2024-05-09T17:48:10.353Z,4.38
2024-05-09T17:50:39.737Z,2.90
2024-05-09T17:53:09.068Z,4.30
2024-05-09T17:55:36.818Z,4.30
2024-05-09T17:58:05.534Z,4.88
2024-05-09T18:00:39.111Z,4.90
2024-05-09T18:03:12.443Z,5.18
2024-05-09T18:05:41.343Z,3.10
2024-05-09T18:08:09.359Z,2.83
2024-05-09T18:10:39.378Z,3.65
2024-05-09T18:13:09.118Z,4.68
2024-05-09T18:15:37.499Z,3.35
2024-05-09T18:18:06.027Z,4.40
2024-05-09T18:20:41.716Z,3.60
2024-05-09T18:23:14.159Z,4.55
2024-05-09T18:25:42.605Z,3.33
2024-05-09T18:28:10.447Z,6.28
2024-05-09T18:30:38.276Z,9.80
2024-05-09T18:33:07.847Z,7.35
2024-05-09T18:35:36.775Z,3.33
2024-05-09T18:38:05.743Z,3.92
2024-05-09T18:40:36.472Z,3.85
2024-05-09T18:43:08.007Z,3.33
2024-05-09T18:45:37.975Z,4.85
2024-05-09T18:48:07.509Z,4.43
2024-05-09T18:50:38.960Z,3.90
2024-05-09T18:53:11.038Z,3.15
2024-05-09T18:55:39.511Z,5.07
2024-05-09T18:58:07.404Z,4.50
2024-05-09T19:00:38.496Z,3.65
2024-05-09T19:03:11.548Z,8.65
2024-05-09T19:05:42.771Z,5.18
2024-05-09T19:08:11.332Z,4.18
2024-05-09T19:10:39.974Z,5.38
2024-05-09T19:13:12.059Z,5.97
2024-05-09T19:15:41.975Z,4.93
2024-05-09T19:18:10.606Z,6.57
2024-05-09T19:20:39.075Z,3.47
2024-05-09T19:23:07.503Z,6.18
2024-05-09T19:25:35.992Z,5.50
2024-05-09T19:28:07.397Z,6.65
2024-05-09T19:30:40.098Z,8.85
2024-05-09T19:33:12.460Z,5.13
2024-05-09T19:35:41.214Z,3.88
2024-05-09T19:38:08.694Z,5.13
2024-05-09T19:40:36.374Z,7.90
2024-05-09T19:43:05.988Z,5.35
2024-05-09T19:45:35.474Z,7.15
2024-05-09T19:48:04.896Z,4.20
2024-05-09T19:50:40.876Z,5.88
2024-05-09T19:53:12.127Z,5.25
2024-05-09T19:55:40.394Z,8.07
2024-05-09T19:58:09.961Z,4.32
2024-05-09T20:00:41.399Z,3.80
2024-05-09T20:03:12.635Z,2.80
2024-05-09T20:05:42.504Z,5.30
2024-05-09T20:08:10.029Z,4.47
2024-05-09T20:10:37.854Z,5.00
2024-05-09T20:13:07.017Z,4.40
2024-05-09T20:15:36.645Z,7.80
2024-05-09T20:18:05.527Z,4.95
2024-05-09T20:20:39.363Z,6.22
2024-05-09T20:23:12.541Z,7.10
2024-05-09T20:25:40.876Z,7.32
2024-05-09T20:28:08.429Z,4.28
2024-05-09T20:30:36.726Z,5.78
2024-05-09T20:33:07.637Z,8.35
2024-05-09T20:35:36.551Z,5.80
2024-05-09T20:38:04.476Z,6.22
2024-05-09T20:40:36.919Z,4.07
2024-05-09T20:43:08.044Z,6.18
2024-05-09T20:45:36.036Z,6.00
2024-05-09T20:48:03.739Z,5.35
2024-05-09T20:50:38.111Z,7.88
2024-05-09T20:53:13.823Z,16.70
2024-05-09T20:55:43.523Z,44.13
2024-05-09T20:58:11.755Z,45.83
2024-05-09T21:00:42.941Z,35.55
2024-05-09T21:03:14.445Z,39.22
2024-05-09T21:05:43.207Z,40.50
2024-05-09T21:08:10.713Z,28.92
2024-05-09T21:10:38.565Z,22.10
2024-05-09T21:13:07.025Z,18.30
2024-05-09T21:15:35.643Z,14.60
2024-05-09T21:18:04.409Z,20.42
2024-05-09T21:20:34.960Z,14.20
2024-05-09T21:23:03.538Z,12.25
2024-05-09T21:25:32.441Z,7.75
2024-05-09T21:28:01.027Z,8.27
2024-05-09T21:30:38.394Z,7.15
2024-05-09T21:33:11.043Z,10.43
2024-05-09T21:35:40.517Z,9.50
2024-05-09T21:38:08.213Z,10.02
2024-05-09T21:40:37.047Z,9.10
2024-05-09T21:43:07.180Z,10.25
2024-05-09T21:45:35.718Z,6.70
2024-05-09T21:48:04.844Z,8.48
2024-05-09T21:50:39.361Z,7.93
2024-05-09T21:53:10.014Z,8.70
2024-05-09T21:55:37.726Z,8.30
2024-05-09T21:58:05.595Z,10.02
2024-05-09T22:00:38.219Z,11.10
2024-05-09T22:03:08.787Z,12.00
2024-05-09T22:05:38.165Z,8.10
2024-05-09T22:08:06.261Z,8.20
2024-05-09T22:10:36.149Z,9.65
2024-05-09T22:13:07.042Z,8.65
2024-05-09T22:15:37.285Z,8.40
2024-05-09T22:18:06.404Z,9.25
2024-05-09T22:20:37.818Z,7.93
2024-05-09T22:23:07.669Z,7.07
2024-05-09T22:25:35.630Z,10.02
2024-05-09T22:28:03.617Z,8.00
2024-05-09T22:30:36.173Z,7.22
2024-05-09T22:33:09.721Z,8.45
2024-05-09T22:35:39.135Z,7.40
2024-05-09T22:38:06.947Z,8.77
2024-05-09T22:40:44.927Z,8.55
2024-05-09T22:43:24.735Z,10.85
2024-05-09T22:45:54.965Z,8.00
2024-05-09T22:48:24.268Z,11.30
2024-05-09T22:50:52.709Z,7.97
2024-05-09T22:53:22.820Z,10.45
2024-05-09T22:55:50.200Z,8.25
2024-05-09T22:58:18.220Z,6.32
2024-05-09T23:00:45.823Z,10.48
2024-05-09T23:03:16.629Z,12.15
2024-05-09T23:05:44.128Z,11.88
2024-05-09T23:08:11.422Z,11.30
2024-05-09T23:10:38.865Z,8.98
2024-05-09T23:13:08.001Z,15.00
2024-05-09T23:15:38.726Z,10.15
2024-05-09T23:18:07.271Z,10.93
2024-05-09T23:20:38.643Z,10.93
2024-05-09T23:23:09.183Z,10.95
2024-05-09T23:25:37.662Z,9.60
2024-05-09T23:28:05.681Z,10.60
2024-05-09T23:30:38.019Z,9.32
2024-05-09T23:33:09.448Z,11.35
2024-05-09T23:35:37.167Z,11.25
2024-05-09T23:38:04.803Z,10.48
2024-05-09T23:43:03.325Z,10.80
2024-05-09T23:45:31.208Z,11.25
2024-05-09T23:47:58.647Z,14.13
2024-05-09T23:50:33.694Z,12.75
2024-05-09T23:53:04.783Z,9.82
2024-05-09T23:55:32.639Z,12.18
2024-05-09T23:58:00.556Z,8.90
